Time;durP1;ratioP1;P1;durP2;ratioP2;P2;SDS_P1;SDS_P2;PMS_P1;PMS_P2;Temp;Humidity;BMP_temperature;BMP_pressure;BME280_temperature;BME280_humidity;BME280_pressure;Samples;Min_cycle;Max_cycle;Signal;HPM_P1;HPM_P2
2024/02/26 00:00:13;;;;;;;;;55.00;44.33;;;;;9.79;100.00;98765.84;6304492;20;3618001;-51
2024/02/26 00:02:41;;;;;;;;;46.50;40.00;;;;;9.97;100.00;98779.72;6304422;20;2841949;-52
2024/02/26 00:05:10;;;;;;;;;47.50;40.00;;;;;10.04;100.00;98782.84;6274892;20;2841989;-50
2024/02/26 00:07:40;;;;;;;;;48.00;40.50;;;;;9.28;100.00;98765.97;6274792;20;2848194;-51
2024/02/26 00:10:09;;;;;;;;;56.00;44.33;;;;;9.25;100.00;98760.84;6274088;20;3633598;-48
2024/02/26 00:12:39;;;;;;;;;50.67;41.33;;;;;9.51;100.00;98766.16;6305626;20;2858682;-52
2024/02/26 00:15:11;;;;;;;;;49.00;40.67;;;;;9.63;100.00;98759.91;6302520;20;2852519;-53
2024/02/26 00:17:40;;;;;;;;;50.00;42.00;;;;;9.63;100.00;98754.53;6306371;20;2843045;-49
2024/02/26 00:20:11;;;;;;;;;50.00;42.33;;;;;9.45;100.00;98749.56;6273890;20;2865477;-50
2024/02/26 00:22:41;;;;;;;;;51.67;44.00;;;;;9.56;100.00;98758.66;6306508;20;3624436;-51
2024/02/26 00:25:12;;;;;;;;;52.00;42.00;;;;;9.37;100.00;98753.75;6305961;20;2855503;-51
2024/02/26 00:27:43;;;;;;;;;53.00;44.00;;;;;9.13;100.00;98738.44;6306294;20;3629482;-48
2024/02/26 00:30:13;;;;;;;;;53.00;43.33;;;;;9.22;100.00;98739.63;6305301;20;3618998;-49
2024/02/26 00:32:42;;;;;;;;;49.67;42.00;;;;;9.30;100.00;98737.25;6307975;20;2864872;-52
2024/02/26 00:35:12;;;;;;;;;52.00;43.00;;;;;9.40;100.00;98738.31;6302871;20;2863925;-52
2024/02/26 00:37:43;;;;;;;;;51.67;40.67;;;;;9.44;100.00;98734.44;6305768;20;2883657;-52
2024/02/26 00:40:13;;;;;;;;;51.33;43.67;;;;;9.38;100.00;98729.53;6305449;20;2857695;-50
2024/02/26 00:42:45;;;;;;;;;60.67;48.00;;;;;9.33;100.00;98722.78;6306018;20;2860827;-54
2024/02/26 00:45:16;;;;;;;;;56.33;43.67;;;;;9.53;100.00;98729.38;6302959;20;3621188;-48
2024/02/26 00:47:47;;;;;;;;;48.33;40.67;;;;;9.41;100.00;98725.78;6305768;20;2842044;-47
2024/02/26 00:50:17;;;;;;;;;50.67;41.00;;;;;9.51;100.00;98728.66;6304629;20;2857777;-50
2024/02/26 00:52:46;;;;;;;;;55.00;44.33;;;;;9.73;100.00;98717.22;6301301;20;3624211;-50
2024/02/26 00:55:16;;;;;;;;;53.50;41.50;;;;;9.58;100.00;98720.03;6300357;20;2865908;-53
2024/02/26 00:57:45;;;;;;;;;51.67;41.00;;;;;9.47;100.00;98716.44;6270750;20;2858636;-48
2024/02/26 01:00:15;;;;;;;;;73.33;61.67;;;;;9.39;100.00;98715.16;6304781;20;3630485;-52
2024/02/26 01:02:48;;;;;;;;;80.67;76.67;;;;;9.51;100.00;98716.09;6269329;20;3651358;-52
2024/02/26 01:05:17;;;;;;;;;79.00;70.67;;;;;9.57;100.00;98707.59;6297798;20;3658573;-50
2024/02/26 01:07:47;;;;;;;;;62.00;49.67;;;;;9.74;100.00;98711.75;6270391;20;3615867;-50
2024/02/26 01:10:17;;;;;;;;;61.67;49.67;;;;;9.52;100.00;98719.63;6302615;20;3626319;-51
2024/02/26 01:12:47;;;;;;;;;48.67;40.33;;;;;9.58;100.00;98717.34;6303401;20;2857555;-53
2024/02/26 01:15:18;;;;;;;;;45.50;37.00;;;;;9.41;100.00;98713.22;6301779;20;2834747;-51
2024/02/26 01:17:48;;;;;;;;;65.00;52.00;;;;;9.49;100.00;98714.50;6272950;20;2869135;-50
2024/02/26 01:20:17;;;;;;;;;74.67;63.67;;;;;9.68;100.00;98714.84;6302970;20;3654469;-50
2024/02/26 01:22:47;;;;;;;;;67.33;52.67;;;;;9.70;100.00;98712.09;6271462;20;2860731;-50
2024/02/26 01:25:17;;;;;;;;;54.67;45.00;;;;;9.87;100.00;98715.22;6299592;20;2857593;-50
2024/02/26 01:27:46;;;;;;;;;51.00;43.00;;;;;9.52;100.00;98708.91;6301310;20;2836750;-51
2024/02/26 01:30:16;;;;;;;;;55.67;41.67;;;;;9.42;100.00;98701.53;6272587;20;3635672;-49
2024/02/26 01:32:46;;;;;;;;;56.00;45.00;;;;;9.39;100.00;98704.44;6306878;20;2861782;-52
2024/02/26 01:35:15;;;;;;;;;45.00;39.00;;;;;9.68;100.00;98701.47;6305932;20;2848284;-54
2024/02/26 01:37:43;;;;;;;;;48.00;41.00;;;;;9.43;100.00;98705.94;6277142;20;2844044;-52
2024/02/26 01:40:17;;;;;;;;;41.00;36.33;;;;;9.55;100.00;98708.69;6275109;20;3625429;-51
2024/02/26 01:42:48;;;;;;;;;50.50;41.00;;;;;9.63;100.00;98707.16;6309032;20;2847211;-51
2024/02/26 01:45:23;;;;;;;;;46.50;39.00;;;;;9.55;100.00;98700.66;6305103;20;2857055;-53
2024/02/26 01:47:55;;;;;;;;;48.00;39.00;;;;;9.48;100.00;98694.03;6305280;20;2847191;-50
2024/02/26 01:50:24;;;;;;;;;49.50;38.50;;;;;9.47;100.00;98692.31;6307805;20;2870096;-49
2024/02/26 01:52:55;;;;;;;;;43.33;37.33;;;;;9.43;100.00;98689.03;6282147;20;3579494;-53
2024/02/26 01:55:26;;;;;;;;;51.00;42.00;;;;;9.66;100.00;98684.63;6273750;20;3603771;-49
2024/02/26 01:57:57;;;;;;;;;43.67;38.33;;;;;9.52;100.00;98687.47;6307505;20;2846181;-52
2024/02/26 02:00:26;;;;;;;;;45.00;37.00;;;;;9.45;100.00;98690.63;6310625;20;2864879;-53
2024/02/26 02:02:56;;;;;;;;;71.00;57.00;;;;;9.55;100.00;98698.81;6275936;20;3630553;-50
2024/02/26 02:05:25;;;;;;;;;42.00;37.00;;;;;9.65;100.00;98693.66;6308822;20;2839877;-50
2024/02/26 02:07:54;;;;;;;;;47.50;41.00;;;;;9.57;100.00;98685.31;6277378;20;2848213;-49
2024/02/26 02:10:26;;;;;;;;;45.67;38.33;;;;;9.37;100.00;98690.31;6276083;20;2861913;-51
2024/02/26 02:12:56;;;;;;;;;46.00;38.00;;;;;9.36;100.00;98682.38;6308494;20;2870272;-49
2024/02/26 02:15:24;;;;;;;;;40.00;35.33;;;;;9.21;100.00;98687.03;6308899;20;3587784;-50
2024/02/26 02:17:53;;;;;;;;;40.50;36.00;;;;;9.41;100.00;98690.94;6276707;20;2834684;-48
2024/02/26 02:20:40;;;;;;;;;41.33;34.33;;;;;9.58;100.00;98679.84;6279350;20;3589873;-48
2024/02/26 02:23:09;;;;;;;;;39.00;35.50;;;;;9.60;100.00;98685.09;6276265;20;2852533;-53
2024/02/26 02:25:37;;;;;;;;;48.00;39.00;;;;;9.57;100.00;98698.72;6274115;20;2861732;-51
2024/02/26 02:28:07;;;;;;;;;49.33;39.67;;;;;9.67;100.00;98686.34;6278541;20;3614837;-48
2024/02/26 02:30:36;;;;;;;;;42.50;37.50;;;;;9.92;100.00;98700.59;6309159;20;2848226;-50
2024/02/26 02:33:05;;;;;;;;;44.00;38.00;;;;;10.04;100.00;98703.22;6276119;20;2846265;-50
2024/02/26 02:35:34;;;;;;;;;48.00;38.50;;;;;9.89;100.00;98710.59;6278711;20;2865066;-52
2024/02/26 02:38:04;;;;;;;;;42.00;35.00;;;;;10.03;100.00;98708.69;6282538;20;3588947;-51
2024/02/26 02:40:32;;;;;;;;;35.50;33.00;;;;;9.81;100.00;98715.66;6278676;20;2846193;-50
2024/02/26 02:43:02;;;;;;;;;44.00;39.00;;;;;9.33;100.00;98704.03;6275431;20;3583582;-52
2024/02/26 02:45:31;;;;;;;;;38.00;33.33;;;;;9.37;100.00;98700.16;6275967;20;3603449;-52
2024/02/26 02:48:00;;;;;;;;;38.00;34.67;;;;;9.37;100.00;98693.00;6306977;20;3580887;-53
2024/02/26 02:50:30;;;;;;;;;39.33;33.67;;;;;9.29;100.00;98692.69;6277482;20;3614836;-52
2024/02/26 02:52:58;;;;;;;;;38.67;34.00;;;;;9.40;100.00;98684.75;6310871;20;3575277;-51
2024/02/26 02:55:28;;;;;;;;;39.50;34.00;;;;;9.64;100.00;98684.75;6274035;20;2870081;-52
2024/02/26 02:57:57;;;;;;;;;42.00;36.00;;;;;9.65;100.00;98689.13;6278404;20;2857575;-51
2024/02/26 03:00:26;;;;;;;;;42.00;36.00;;;;;9.58;100.00;98697.75;6309433;20;2844052;-49
2024/02/26 03:02:55;;;;;;;;;38.67;33.67;;;;;9.39;100.00;98691.03;6273906;20;2861841;-51
2024/02/26 03:05:24;;;;;;;;;41.67;37.00;;;;;9.46;100.00;98696.81;6313280;20;3574273;-54
2024/02/26 03:07:53;;;;;;;;;34.00;31.50;;;;;9.75;100.00;98704.56;6275491;20;2849352;-51
2024/02/26 03:10:22;;;;;;;;;44.67;35.00;;;;;9.92;100.00;98701.47;6279013;20;2852396;-50
2024/02/26 03:12:52;;;;;;;;;40.00;34.00;;;;;9.76;100.00;98696.38;6307300;20;2851352;-53
2024/02/26 03:15:21;;;;;;;;;38.00;35.00;;;;;9.37;100.00;98695.69;6305030;20;2852389;-48
2024/02/26 03:17:50;;;;;;;;;40.00;35.33;;;;;9.38;100.00;98684.00;6277811;20;2857746;-51
2024/02/26 03:20:19;;;;;;;;;43.50;37.00;;;;;9.48;100.00;98691.34;6306745;20;2863821;-51
2024/02/26 03:22:48;;;;;;;;;39.50;36.00;;;;;9.64;100.00;98686.59;6275232;20;2848677;-52
2024/02/26 03:25:17;;;;;;;;;44.67;36.00;;;;;9.59;100.00;98689.59;6275790;20;3616921;-48
2024/02/26 03:27:47;;;;;;;;;41.33;33.67;;;;;9.61;100.00;98678.75;6305144;20;2873973;-51
2024/02/26 03:30:16;;;;;;;;;38.00;34.00;;;;;9.54;100.00;98685.56;6305364;20;2853516;-51
2024/02/26 03:32:46;;;;;;;;;39.50;35.50;;;;;9.38;100.00;98680.47;6274321;20;2852360;-49
2024/02/26 03:35:16;;;;;;;;;39.00;32.67;;;;;9.24;100.00;98678.75;6272311;20;2860726;-48
2024/02/26 03:37:47;;;;;;;;;42.33;36.67;;;;;9.17;100.00;98673.00;6307828;20;2846241;-51
2024/02/26 03:40:19;;;;;;;;;46.33;37.00;;;;;9.07;100.00;98663.06;6305369;20;3608578;-49
2024/02/26 03:42:48;;;;;;;;;47.50;38.00;;;;;9.18;100.00;98664.00;6307553;20;2862810;-52
2024/02/26 03:45:16;;;;;;;;;42.00;37.00;;;;;8.84;100.00;98662.88;6274333;20;2840900;-52
2024/02/26 03:47:45;;;;;;;;;38.50;34.00;;;;;8.81;100.00;98652.41;6275970;20;2862205;-51
2024/02/26 03:50:14;;;;;;;;;36.00;34.00;;;;;8.84;100.00;98640.63;6275522;20;2856063;-49
2024/02/26 03:52:43;;;;;;;;;40.00;34.00;;;;;9.16;100.00;98646.31;6276512;20;3614846;-50
2024/02/26 03:55:12;;;;;;;;;38.00;33.00;;;;;9.04;100.00;98652.59;6305843;20;3616955;-52
2024/02/26 03:57:41;;;;;;;;;35.33;32.67;;;;;9.11;100.00;98659.19;6273920;20;3576331;-51
2024/02/26 04:00:11;;;;;;;;;37.33;30.00;;;;;9.16;100.00;98659.72;6310021;20;3600230;-53
2024/02/26 04:02:40;;;;;;;;;32.33;31.33;;;;;9.07;100.00;98657.72;6274079;20;2852416;-49
2024/02/26 04:05:13;;;;;;;;;39.33;32.33;;;;;8.95;100.00;98654.97;6302931;20;3602308;-58
2024/02/26 04:07:41;;;;;;;;;33.00;31.00;;;;;9.09;100.00;98647.75;6273674;20;2848216;-52
2024/02/26 04:10:12;;;;;;;;;37.33;31.33;;;;;9.26;100.00;98658.09;6274716;20;3604451;-51
2024/02/26 04:12:43;;;;;;;;;35.00;31.00;;;;;9.42;100.00;98650.63;6306895;20;2841959;-53
2024/02/26 04:15:13;;;;;;;;;31.33;30.00;;;;;9.23;100.00;98659.16;6303182;20;3608649;-49
2024/02/26 04:17:42;;;;;;;;;34.00;31.33;;;;;9.09;100.00;98653.13;6309174;20;3609708;-53
2024/02/26 04:20:16;;;;;;;;;32.67;28.00;;;;;9.51;100.00;98648.28;6276886;20;2861227;-53
2024/02/26 04:22:45;;;;;;;;;39.00;32.00;;;;;9.45;100.00;98650.44;6302611;20;3604523;-54
2024/02/26 04:25:15;;;;;;;;;46.33;34.67;;;;;9.46;100.00;98651.28;6272796;20;3617991;-54
2024/02/26 04:27:44;;;;;;;;;36.00;33.00;;;;;9.41;100.00;98653.44;6307214;20;2862954;-52
2024/02/26 04:30:14;;;;;;;;;40.00;34.00;;;;;9.40;100.00;98657.94;6304674;20;2854686;-54
2024/02/26 04:32:42;;;;;;;;;39.67;36.00;;;;;9.43;100.00;98656.88;6309454;20;3620116;-52
2024/02/26 04:35:11;;;;;;;;;39.00;34.00;;;;;9.30;100.00;98659.59;6274887;20;3606494;-53
2024/02/26 04:37:41;;;;;;;;;38.33;33.00;;;;;9.15;100.00;98656.19;6275374;20;2860927;-51
2024/02/26 04:40:10;;;;;;;;;37.33;33.33;;;;;9.06;100.00;98658.66;6307955;20;3602309;-51
2024/02/26 04:42:39;;;;;;;;;41.00;34.50;;;;;9.15;100.00;98660.69;6273580;20;2866909;-51
2024/02/26 04:45:08;;;;;;;;;39.00;34.00;;;;;9.44;100.00;98659.41;6272982;20;2843040;-51
2024/02/26 04:47:38;;;;;;;;;35.67;33.00;;;;;9.48;100.00;98657.38;6274890;20;3608595;-52
2024/02/26 04:50:07;;;;;;;;;39.00;34.00;;;;;9.47;100.00;98662.84;6306063;20;3622160;-54
2024/02/26 04:52:37;;;;;;;;;36.33;33.33;;;;;8.99;100.00;98659.13;6273672;20;2852483;-53
2024/02/26 04:55:07;;;;;;;;;39.33;33.00;;;;;9.13;100.00;98673.34;6303533;20;3584741;-54
2024/02/26 04:57:35;;;;;;;;;32.33;31.00;;;;;9.10;100.00;98660.16;6305557;20;3584684;-49
2024/02/26 05:00:06;;;;;;;;;34.00;31.00;;;;;9.02;100.00;98658.88;6271836;20;2832779;-52
2024/02/26 05:02:37;;;;;;;;;31.00;30.50;;;;;9.04;100.00;98660.63;6271183;20;2830635;-54
2024/02/26 05:05:08;;;;;;;;;33.33;31.00;;;;;9.12;100.00;98666.28;6271705;20;3596075;-50
2024/02/26 05:07:42;;;;;;;;;30.00;28.67;;;;;8.95;100.00;98667.47;6307280;20;3606638;-49
2024/02/26 05:10:11;;;;;;;;;32.00;30.67;;;;;9.19;100.00;98675.59;6276340;20;2855534;-50
2024/02/26 05:12:42;;;;;;;;;29.33;28.00;;;;;9.33;100.00;98678.09;6308017;20;3589960;-51
2024/02/26 05:15:17;;;;;;;;;37.00;31.00;;;;;8.95;100.00;98665.66;6270201;20;2860886;-51
2024/02/26 05:17:46;;;;;;;;;34.67;31.67;;;;;8.79;100.00;98668.59;6307790;20;3614989;-52
2024/02/26 05:20:15;;;;;;;;;38.00;33.00;;;;;8.70;100.00;98668.38;6278241;20;3603411;-53
2024/02/26 05:22:44;;;;;;;;;29.50;29.50;;;;;8.69;100.00;98651.47;6274309;20;2860774;-50
2024/02/26 05:25:15;;;;;;;;;35.00;31.00;;;;;8.85;100.00;98651.22;6272901;20;3571087;-48
2024/02/26 05:27:45;;;;;;;;;30.67;29.00;;;;;8.80;100.00;98648.03;6307159;20;3599330;-53
2024/02/26 05:30:14;;;;;;;;;35.67;30.67;;;;;8.68;100.00;98649.72;6273546;20;2859262;-52
2024/02/26 05:32:43;;;;;;;;;36.33;30.33;;;;;8.88;100.00;98645.66;6307607;20;3587799;-50
2024/02/26 05:35:12;;;;;;;;;37.00;31.00;;;;;8.97;100.00;98650.31;6270871;20;2742965;-52
2024/02/26 05:37:41;;;;;;;;;34.00;31.50;;;;;9.04;100.00;98658.78;6304336;20;2852452;-50
2024/02/26 05:40:11;;;;;;;;;39.50;33.00;;;;;8.94;100.00;98661.25;6273380;20;2832039;-53
2024/02/26 05:42:40;;;;;;;;;32.00;30.33;;;;;9.01;100.00;98662.53;6274742;20;3608584;-52
2024/02/26 05:45:09;;;;;;;;;33.33;31.33;;;;;8.91;100.00;98657.97;6303109;20;3607527;-52
2024/02/26 05:47:42;;;;;;;;;37.33;33.67;;;;;8.98;100.00;98668.13;6273453;20;2852361;-50
2024/02/26 05:50:12;;;;;;;;;36.33;33.00;;;;;8.92;100.00;98663.19;6307048;20;3586701;-53
2024/02/26 05:52:42;;;;;;;;;35.67;31.00;;;;;9.01;100.00;98672.41;6272805;20;2857682;-50
2024/02/26 05:55:11;;;;;;;;;34.67;32.67;;;;;8.96;100.00;98670.03;6305508;20;3604515;-53
2024/02/26 05:57:40;;;;;;;;;34.00;32.67;;;;;9.04;100.00;98671.31;6272954;20;2846113;-54
2024/02/26 06:00:10;;;;;;;;;35.67;32.00;;;;;9.17;100.00;98683.72;6305505;20;3613800;-54
2024/02/26 06:02:43;;;;;;;;;36.33;33.67;;;;;9.11;100.00;98688.66;6273761;20;3580469;-54
2024/02/26 06:05:12;;;;;;;;;42.33;33.67;;;;;8.92;100.00;98684.59;6269616;20;2869148;-49
2024/02/26 06:07:41;;;;;;;;;31.00;30.67;;;;;8.84;100.00;98692.31;6307164;20;3588796;-51
2024/02/26 06:10:10;;;;;;;;;33.50;29.50;;;;;8.82;100.00;98688.03;6272006;20;2852388;-53
2024/02/26 06:12:40;;;;;;;;;48.50;36.00;;;;;8.96;100.00;98679.91;6271620;20;2871066;-53
2024/02/26 06:15:09;;;;;;;;;41.50;36.00;;;;;8.74;100.00;98680.53;6268569;20;2842986;-54
2024/02/26 06:17:38;;;;;;;;;41.00;34.50;;;;;8.89;100.00;98686.66;6273962;20;2853390;-52
2024/02/26 06:20:11;;;;;;;;;39.33;35.00;;;;;9.10;100.00;98682.44;6282071;20;3580526;-50
2024/02/26 06:22:41;;;;;;;;;83.00;71.67;;;;;8.82;100.00;98670.19;6307736;20;3683091;-50
2024/02/26 06:25:11;;;;;;;;;128.33;112.33;;;;;8.97;100.00;98677.09;6273934;20;3707619;-52
2024/02/26 06:27:41;;;;;;;;;98.00;88.50;;;;;9.02;100.00;98677.63;6312325;20;4420016;-53
2024/02/26 06:30:11;;;;;;;;;98.00;86.50;;;;;9.34;100.00;98687.84;6311196;20;4449213;-52
2024/02/26 06:32:40;;;;;;;;;58.33;45.67;;;;;9.60;100.00;98701.16;6308572;20;3635746;-53
2024/02/26 06:35:11;;;;;;;;;53.00;43.00;;;;;9.50;100.00;98702.81;6275914;20;3618996;-51
2024/02/26 06:37:40;;;;;;;;;42.33;36.00;;;;;9.56;100.00;98718.47;6315059;20;3603392;-54
2024/02/26 06:40:09;;;;;;;;;37.50;33.00;;;;;9.65;100.00;98701.69;6275453;20;2836874;-53
2024/02/26 06:42:39;;;;;;;;;39.33;34.33;;;;;9.47;100.00;98711.06;6278268;20;2855584;-52
2024/02/26 06:45:08;;;;;;;;;46.67;39.00;;;;;9.44;100.00;98713.00;6306651;20;2853446;-51
2024/02/26 06:47:37;;;;;;;;;50.00;39.00;;;;;9.64;100.00;98716.91;6312868;20;3611213;-51
2024/02/26 06:50:06;;;;;;;;;42.00;36.00;;;;;10.19;100.00;98720.00;6277404;20;2846254;-52
2024/02/26 06:52:36;;;;;;;;;49.67;40.00;;;;;10.20;100.00;98718.16;6279475;20;2861766;-51
2024/02/26 06:55:08;;;;;;;;;51.67;42.33;;;;;9.82;100.00;98717.41;6311137;20;3598209;-52
2024/02/26 06:57:37;;;;;;;;;62.67;49.00;;;;;9.83;100.00;98712.88;6274759;20;3631525;-53
2024/02/26 07:00:07;;;;;;;;;48.00;40.00;;;;;9.74;100.00;98716.22;6308585;20;2840961;-51
2024/02/26 07:02:37;;;;;;;;;51.00;43.00;;;;;9.55;100.00;98708.69;6275427;20;2866017;-52
2024/02/26 07:05:09;;;;;;;;;48.00;40.67;;;;;9.49;100.00;98710.00;6307110;20;2848284;-54
2024/02/26 07:07:38;;;;;;;;;48.00;41.50;;;;;9.83;100.00;98711.06;6308583;20;2846033;-51
2024/02/26 07:10:07;;;;;;;;;44.50;37.00;;;;;9.79;100.00;98714.06;6275854;20;2848240;-53
2024/02/26 07:12:37;;;;;;;;;46.33;38.00;;;;;9.91;100.00;98715.00;6275672;20;2860724;-54
2024/02/26 07:15:09;;;;;;;;;46.67;40.00;;;;;10.33;100.00;98725.19;6305140;20;3601317;-51
2024/02/26 07:17:41;;;;;;;;;49.50;42.50;;;;;9.85;100.00;98719.00;6308721;20;2846244;-54
2024/02/26 07:20:12;;;;;;;;;50.33;39.67;;;;;10.19;100.00;98713.75;6276736;20;3615998;-53
2024/02/26 07:22:44;;;;;;;;;50.00;39.33;;;;;9.73;100.00;98722.56;6308644;20;3609830;-53
2024/02/26 07:25:13;;;;;;;;;55.00;42.33;;;;;10.36;100.00;98737.53;6305013;20;3623197;-53
2024/02/26 07:27:42;;;;;;;;;46.00;36.00;;;;;10.30;100.00;98727.28;6307057;20;2861887;-51
2024/02/26 07:30:12;;;;;;;;;47.00;39.00;;;;;10.30;100.00;98728.13;6276740;20;2851330;-52
2024/02/26 07:32:44;;;;;;;;;48.33;38.00;;;;;10.46;100.00;98735.00;6277388;20;2857708;-50
2024/02/26 07:35:19;;;;;;;;;47.33;39.00;;;;;10.08;100.00;98730.66;6305296;20;2849250;-54
2024/02/26 07:37:50;;;;;;;;;45.67;38.33;;;;;10.06;100.00;98724.59;6312088;20;3589906;-55
2024/02/26 07:40:20;;;;;;;;;50.33;38.33;;;;;10.40;100.00;98730.09;6275340;20;2863907;-50
2024/02/26 07:42:49;;;;;;;;;45.67;38.33;;;;;10.36;100.00;98723.25;6306533;20;2850349;-54
2024/02/26 07:45:20;;;;;;;;;46.00;36.50;;;;;10.22;100.00;98725.13;6305107;20;2846241;-51
2024/02/26 07:47:51;;;;;;;;;48.00;40.50;;;;;10.27;100.00;98720.31;6275415;20;2866947;-53
2024/02/26 07:50:20;;;;;;;;;49.67;40.00;;;;;10.58;100.00;98719.78;6277460;20;2858604;-51
2024/02/26 07:52:51;;;;;;;;;45.50;39.00;;;;;10.79;100.00;98728.00;6306983;20;2854424;-51
2024/02/26 07:55:22;;;;;;;;;52.67;41.67;;;;;10.84;100.00;98723.97;6274397;20;2859708;-53
2024/02/26 07:57:50;;;;;;;;;47.00;37.67;;;;;10.82;100.00;98727.75;6309577;20;3609634;-53
2024/02/26 08:00:20;;;;;;;;;46.67;40.00;;;;;10.47;100.00;98721.44;6277623;20;2856661;-51
2024/02/26 08:02:50;;;;;;;;;48.33;39.33;;;;;10.41;100.00;98731.81;6305825;20;3612878;-52
2024/02/26 08:05:20;;;;;;;;;50.00;39.67;;;;;10.74;100.00;98734.59;6307048;20;2865981;-53
2024/02/26 08:07:49;;;;;;;;;47.67;39.67;;;;;10.47;100.00;98740.25;6307786;20;2862256;-52
2024/02/26 08:10:19;;;;;;;;;48.67;41.33;;;;;10.71;100.00;98724.06;6307647;20;2869173;-53
2024/02/26 08:12:48;;;;;;;;;50.67;40.33;;;;;10.95;100.00;98718.63;6307965;20;2846257;-50
2024/02/26 08:15:18;;;;;;;;;47.00;39.67;;;;;11.23;100.00;98727.19;6309310;20;3599625;-53
2024/02/26 08:17:47;;;;;;;;;46.50;38.50;;;;;11.71;100.00;98734.09;6277818;20;2857693;-53
2024/02/26 08:20:18;;;;;;;;;45.67;38.67;;;;;11.92;100.00;98739.59;6276493;20;2857658;-53
2024/02/26 08:22:47;;;;;;;;;44.67;36.67;;;;;11.47;100.00;98745.84;6310728;20;3593104;-54
2024/02/26 08:25:17;;;;;;;;;48.33;39.33;;;;;11.58;100.00;98740.47;6273393;20;2868651;-51
2024/02/26 08:27:47;;;;;;;;;46.33;39.33;;;;;11.13;100.00;98743.16;6308886;20;2860740;-53
2024/02/26 08:30:17;;;;;;;;;46.67;38.67;;;;;11.35;100.00;98739.66;6307246;20;3597207;-51
2024/02/26 08:32:47;;;;;;;;;45.00;37.00;;;;;11.85;100.00;98733.84;6277364;20;2845504;-54
2024/02/26 08:35:20;;;;;;;;;43.33;37.00;;;;;11.68;100.00;98737.88;6274613;20;2848174;-52
2024/02/26 08:37:50;;;;;;;;;50.67;41.00;;;;;12.29;100.00;98738.22;6308970;20;2860208;-54
2024/02/26 08:40:19;;;;;;;;;49.33;40.67;;;;;12.36;100.00;98743.13;6310833;20;3589926;-55
2024/02/26 08:42:48;;;;;;;;;50.00;40.50;;;;;12.81;100.00;98737.50;6275814;20;2674286;-55
2024/02/26 08:45:17;;;;;;;;;52.00;41.67;;;;;12.51;100.00;98741.81;6307634;20;3604480;-54
2024/02/26 08:47:47;;;;;;;;;47.00;40.00;;;;;12.75;100.00;98744.25;6274285;20;2868087;-56
2024/02/26 08:50:17;;;;;;;;;53.67;44.00;;;;;12.79;100.00;98750.22;6307506;20;3623254;-55
2024/02/26 08:52:50;;;;;;;;;51.67;43.67;;;;;12.65;100.00;98748.72;6306400;20;2861745;-56
2024/02/26 08:55:18;;;;;;;;;55.67;44.33;;;;;12.69;100.00;98747.47;6309085;20;3604460;-56
2024/02/26 08:57:48;;;;;;;;;51.00;40.67;;;;;12.51;100.00;98748.06;6277977;20;3610815;-55
2024/02/26 09:00:20;;;;;;;;;54.00;45.00;;;;;12.71;100.00;98750.88;6303787;20;3614878;-54
2024/02/26 09:02:50;;;;;;;;;54.00;44.00;;;;;12.74;100.00;98747.91;6304224;20;3629443;-55
2024/02/26 09:05:19;;;;;;;;;55.33;45.67;;;;;12.35;100.00;98750.34;6305023;20;2852468;-54
2024/02/26 09:07:48;;;;;;;;;57.00;45.00;;;;;13.02;100.00;98757.19;6308221;20;3620191;-52
2024/02/26 09:10:18;;;;;;;;;56.00;45.33;;;;;12.50;100.00;98762.47;6277431;20;3622163;-56
2024/02/26 09:12:47;;;;;;;;;56.00;45.33;;;;;12.82;100.00;98756.22;6307002;20;3604482;-55
2024/02/26 09:15:16;;;;;;;;;55.33;45.33;;;;;13.27;100.00;98765.84;6306794;20;3608647;-52
2024/02/26 09:17:46;;;;;;;;;58.00;46.67;;;;;13.78;100.00;98755.00;6275425;20;3629411;-54
2024/02/26 09:20:15;;;;;;;;;59.00;47.33;;;;;13.46;100.00;98752.47;6309033;20;3625289;-54
2024/02/26 09:22:43;;;;;;;;;51.33;42.67;;;;;13.28;100.00;98757.63;6279370;20;3597225;-54
2024/02/26 09:25:15;;;;;;;;;57.00;45.33;;;;;13.51;100.00;98760.16;6272004;20;3622184;-55
2024/02/26 09:27:46;;;;;;;;;52.33;43.33;;;;;13.59;100.00;98755.78;6306642;20;3602346;-53
2024/02/26 09:30:15;;;;;;;;;57.67;45.67;;;;;12.88;100.00;98760.22;6309531;20;3610663;-56
2024/02/26 09:32:50;;;;;;;;;54.00;43.00;;;;;13.55;100.00;98764.28;6279109;20;3605464;-54
2024/02/26 09:35:21;;;;;;;;;56.33;45.33;;;;;13.70;100.00;98764.78;6273381;20;3605562;-53
2024/02/26 09:37:50;;;;;;;;;59.33;46.00;;;;;13.24;100.00;98772.34;6307832;20;3634659;-55
2024/02/26 09:40:19;;;;;;;;;54.00;44.00;;;;;12.85;100.00;98766.72;6308193;20;3603475;-56
2024/02/26 09:43:00;;;;;;;;;55.33;45.00;;;;;13.23;100.00;98775.19;6273536;20;3619027;-53
2024/02/26 09:45:31;;;;;;;;;53.33;43.33;;;;;12.99;100.00;98770.94;6308284;20;3607669;-56
2024/02/26 09:48:03;;;;;;;;;56.00;45.33;;;;;13.46;100.00;98765.13;6272377;20;3615911;-55
2024/02/26 09:50:33;;;;;;;;;54.33;43.33;;;;;13.77;100.00;98774.88;6307358;20;3597138;-54
2024/02/26 09:53:05;;;;;;;;;56.67;47.33;;;;;13.05;100.00;98774.94;6275508;20;3606497;-55
2024/02/26 09:55:34;;;;;;;;;54.67;44.00;;;;;13.78;100.00;98781.13;6316487;20;3615911;-57
2024/02/26 09:58:06;;;;;;;;;56.33;45.00;;;;;13.79;100.00;98783.66;6281906;20;3612737;-55
2024/02/26 10:00:40;;;;;;;;;54.00;44.00;;;;;13.38;100.00;98784.66;6282454;20;3614843;-55
2024/02/26 10:03:15;;;;;;;;;57.00;47.33;;;;;13.34;100.00;98781.34;6279785;20;3611689;-56
2024/02/26 10:05:45;;;;;;;;;54.50;46.00;;;;;12.88;100.00;98787.16;6279392;20;3497288;-56
2024/02/26 10:08:18;;;;;;;;;57.33;45.00;;;;;13.06;100.00;98784.72;6306828;20;3613824;-57
2024/02/26 10:10:47;;;;;;;;;57.00;46.00;;;;;13.91;100.00;98786.28;6313317;20;3625323;-56
2024/02/26 10:13:16;;;;;;;;;53.00;44.00;;;;;13.95;100.00;98783.16;6283809;20;3625256;-56
2024/02/26 10:15:45;;;;;;;;;52.67;43.33;;;;;13.97;100.00;98785.72;6279034;20;3622128;-55
2024/02/26 10:18:15;;;;;;;;;55.67;45.33;;;;;14.11;100.00;98788.00;6311841;20;3629547;-56
2024/02/26 10:21:03;;;;;;;;;54.67;43.67;;;;;13.77;100.00;98780.28;6311842;20;3615906;-57
2024/02/26 10:23:33;;;;;;;;;53.33;45.33;;;;;13.35;100.00;98788.47;6277044;20;3595160;-56
2024/02/26 10:26:02;;;;;;;;;52.67;43.33;;;;;13.74;100.00;98785.91;6313799;20;3610696;-56
2024/02/26 10:28:32;;;;;;;;;59.67;47.67;;;;;13.90;100.00;98788.13;6278455;20;3616993;-56
2024/02/26 10:31:01;;;;;;;;;55.67;44.67;;;;;13.59;100.00;98782.75;6312479;20;3616932;-57
2024/02/26 10:33:36;;;;;;;;;56.00;46.00;;;;;13.19;100.00;98788.03;6275877;20;3623230;-58
2024/02/26 10:36:09;;;;;;;;;55.00;44.00;;;;;13.19;100.00;98777.28;6313664;20;3595110;-57
2024/02/26 10:38:38;;;;;;;;;55.33;46.00;;;;;13.64;100.00;98786.88;6278845;20;3613871;-57
2024/02/26 10:41:17;;;;;;;;;58.00;46.25;;;;;14.12;100.00;98784.34;6313202;20;3633702;-57
2024/02/26 10:43:46;;;;;;;;;53.00;44.67;;;;;13.72;100.00;98777.13;6314024;20;3604477;-57
2024/02/26 10:46:16;;;;;;;;;58.00;46.33;;;;;13.49;100.00;98773.78;6274738;20;3627340;-57
2024/02/26 10:48:53;;;;;;;;;55.00;46.00;;;;;13.42;100.00;98774.44;6311394;20;3609655;-56
2024/02/26 10:51:30;;;;;;;;;55.67;46.33;;;;;13.91;100.00;98768.25;6278631;20;3617030;-57
2024/02/26 10:54:01;;;;;;;;;58.67;45.00;;;;;14.36;100.00;98762.34;6310472;20;3635706;-57
2024/02/26 10:56:37;;;;;;;;;56.67;44.67;;;;;15.22;100.00;98758.84;6275222;20;2870070;-57
2024/02/26 10:59:10;;;;;;;;;56.67;46.67;;;;;14.70;100.00;98753.84;6310402;20;3615975;-58
2024/02/26 11:01:41;;;;;;;;;56.67;46.67;;;;;15.05;100.00;98749.66;6280647;20;3603573;-58
2024/02/26 11:04:11;;;;;;;;;57.00;46.00;;;;;15.19;100.00;98756.44;6273686;20;3616013;-58
2024/02/26 11:06:40;;;;;;;;;61.67;49.00;;;;;14.74;100.00;98746.28;6309806;20;3623382;-58
2024/02/26 11:09:14;;;;;;;;;58.75;47.25;;;;;15.95;100.00;98749.00;6282250;20;3633647;-57
2024/02/26 11:11:45;;;;;;;;;61.75;48.75;;;;;14.65;100.00;98754.25;6309376;20;3633703;-57